Time;durP1;ratioP1;P1;durP2;ratioP2;P2;SDS_P1;SDS_P2;PMS_P1;PMS_P2;Temp;Humidity;BMP_temperature;BMP_pressure;BME280_temperature;BME280_humidity;BME280_pressure;Samples;Min_cycle;Max_cycle;Signal;HPM_P1;HPM_P2
2021/01/29 00:02:12;;;;;;;6.40;4.20;;;;;;;7.26;100.00;95186.34;5018318;28;20263;-73
2021/01/29 00:04:39;;;;;;;7.80;4.43;;;;;;;7.19;100.00;95187.25;5017194;28;21325;-73
2021/01/29 00:07:07;;;;;;;8.03;4.80;;;;;;;7.22;100.00;95180.84;5017109;28;20460;-72
2021/01/29 00:09:33;;;;;;;6.40;4.47;;;;;;;7.20;100.00;95182.84;5017909;28;20217;-73
2021/01/29 00:11:59;;;;;;;6.63;4.70;;;;;;;7.20;100.00;95178.41;5018020;28;20328;-73
2021/01/29 00:14:25;;;;;;;5.10;3.40;;;;;;;7.25;100.00;95175.25;5017464;28;20840;-73
2021/01/29 00:16:51;;;;;;;6.23;4.10;;;;;;;7.25;100.00;95175.25;5017303;28;20300;-72
2021/01/29 00:19:18;;;;;;;6.20;4.20;;;;;;;7.26;100.00;95169.03;5017465;28;20974;-72
2021/01/29 00:21:44;;;;;;;6.30;4.13;;;;;;;7.20;100.00;95175.78;5017522;28;20279;-72
2021/01/29 00:24:10;;;;;;;7.23;4.60;;;;;;;7.23;100.00;95169.38;5017821;28;21254;-72
2021/01/29 00:26:36;;;;;;;7.47;5.30;;;;;;;7.20;100.00;95167.13;5016156;28;20206;-72
2021/01/29 00:29:03;;;;;;;9.63;4.53;;;;;;;7.26;100.00;95169.03;5017118;28;20212;-72
2021/01/29 00:31:29;;;;;;;7.37;5.07;;;;;;;7.26;100.00;95166.41;5017356;28;20596;-72
2021/01/29 00:33:55;;;;;;;8.37;5.60;;;;;;;7.21;100.00;95163.53;5017301;28;20261;-72
2021/01/29 00:36:21;;;;;;;7.17;5.33;;;;;;;7.13;100.00;95160.97;5016995;28;20205;-72
2021/01/29 00:38:47;;;;;;;9.90;5.70;;;;;;;7.13;100.00;95158.34;5016893;28;20643;-72
2021/01/29 00:41:13;;;;;;;10.83;6.53;;;;;;;7.13;100.00;95155.72;5017398;28;20831;-72
2021/01/29 00:43:40;;;;;;;10.13;5.93;;;;;;;7.18;100.00;95159.44;5017154;28;20205;-72
2021/01/29 00:46:06;;;;;;;13.20;7.60;;;;;;;7.14;100.00;95152.13;5016030;28;20456;-72
2021/01/29 00:48:32;;;;;;;10.03;6.70;;;;;;;7.15;100.00;95146.69;5016763;28;20226;-72
2021/01/29 00:50:58;;;;;;;9.70;6.50;;;;;;;7.11;100.00;95152.50;5017130;28;20293;-72
2021/01/29 00:53:25;;;;;;;10.37;7.03;;;;;;;7.16;100.00;95135.22;5017131;28;20217;-72
2021/01/29 00:55:51;;;;;;;11.57;7.03;;;;;;;7.06;100.00;95142.56;5016409;28;20214;-72
2021/01/29 00:58:17;;;;;;;11.57;7.70;;;;;;;7.04;100.00;95139.31;5016988;28;20590;-72
2021/01/29 01:00:43;;;;;;;12.67;7.63;;;;;;;7.02;100.00;95137.88;5017126;28;20249;-72
2021/01/29 01:03:09;;;;;;;12.50;7.87;;;;;;;7.00;100.00;95139.84;5016891;28;20428;-74
2021/01/29 01:05:35;;;;;;;13.50;8.43;;;;;;;6.99;100.00;95144.28;5016215;28;20321;-72
2021/01/29 01:08:01;;;;;;;12.83;7.90;;;;;;;6.99;100.00;95140.88;5016646;28;20217;-72
2021/01/29 01:10:28;;;;;;;11.40;7.60;;;;;;;6.98;100.00;95123.53;5017900;28;20210;-72
2021/01/29 01:12:54;;;;;;;11.63;8.07;;;;;;;6.98;100.00;95116.47;5016675;28;20206;-72
2021/01/29 01:15:22;;;;;;;13.63;7.83;;;;;;;6.96;100.00;95115.03;5015854;28;20202;-72
2021/01/29 01:17:49;;;;;;;12.63;7.30;;;;;;;7.01;100.00;95115.28;5017251;28;20228;-72
2021/01/29 01:20:17;;;;;;;14.23;8.07;;;;;;;6.99;100.00;95091.13;5017004;28;20202;-72
2021/01/29 01:22:43;;;;;;;14.20;8.13;;;;;;;7.00;100.00;95090.09;5016528;28;20202;-72
2021/01/29 01:25:10;;;;;;;13.33;7.93;;;;;;;7.01;100.00;95079.44;5016252;28;20734;-72
2021/01/29 01:27:37;;;;;;;9.77;6.80;;;;;;;6.96;100.00;95078.38;5016868;28;20604;-73
2021/01/29 01:30:04;;;;;;;13.70;7.63;;;;;;;7.05;100.00;95065.00;5016279;28;20758;-72
2021/01/29 01:32:30;;;;;;;12.20;7.40;;;;;;;7.03;100.00;95066.97;5016587;28;20202;-72
2021/01/29 01:34:56;;;;;;;12.60;7.50;;;;;;;7.07;100.00;95056.97;5016695;28;20255;-73
2021/01/29 01:37:22;;;;;;;13.53;7.37;;;;;;;7.10;100.00;95046.91;5018218;28;20320;-73
2021/01/29 01:39:48;;;;;;;12.27;7.50;;;;;;;7.17;100.00;95041.75;5020904;28;20599;-73
2021/01/29 01:42:14;;;;;;;13.07;7.90;;;;;;;7.13;100.00;95032.63;5020618;28;20202;-72
2021/01/29 01:44:43;;;;;;;11.07;6.40;;;;;;;7.20;100.00;95026.47;5020222;28;20756;-72
2021/01/29 01:47:21;;;;;;;13.33;7.27;;;;;;;7.26;100.00;95021.28;5019698;28;20774;-72
2021/01/29 01:49:48;;;;;;;11.33;6.87;;;;;;;7.30;100.00;95016.50;5020667;28;20573;-72
2021/01/29 01:52:19;;;;;;;10.50;6.67;;;;;;;7.27;100.00;95012.44;5020541;28;20554;-73
2021/01/29 01:54:49;;;;;;;11.30;6.83;;;;;;;7.27;100.00;95009.03;5019946;28;20217;-73
2021/01/29 01:57:18;;;;;;;12.20;7.63;;;;;;;7.32;100.00;95010.06;5019565;28;20225;-72
2021/01/29 01:59:50;;;;;;;11.30;7.07;;;;;;;7.30;100.00;95014.69;5020032;28;20916;-72
2021/01/29 02:02:21;;;;;;;11.47;7.50;;;;;;;7.34;100.00;94997.63;5020114;28;20209;-72
2021/01/29 02:04:47;;;;;;;11.83;7.00;;;;;;;7.31;100.00;95000.59;5019931;28;20271;-72
2021/01/29 02:07:24;;;;;;;10.90;6.97;;;;;;;7.36;100.00;94998.22;5019614;28;20224;-72
2021/01/29 02:09:51;;;;;;;7.70;5.17;;;;;;;7.41;100.00;94998.47;5019979;28;20221;-72
2021/01/29 02:12:19;;;;;;;10.03;6.60;;;;;;;7.39;100.00;94984.72;5020404;28;20633;-72
2021/01/29 02:14:46;;;;;;;11.47;7.33;;;;;;;7.37;100.00;94975.47;5020327;28;20854;-72
2021/01/29 02:17:21;;;;;;;11.20;7.40;;;;;;;7.42;100.00;94966.03;5018967;28;21360;-73
2021/01/29 02:20:37;;;;;;;13.00;7.60;;;;;;;7.40;100.00;94952.28;5019870;28;20212;-72
2021/01/29 02:23:35;;;;;;;11.53;6.67;;;;;;;7.35;100.00;94956.50;5017479;28;20209;-72
2021/01/29 02:26:31;;;;;;;11.40;7.30;;;;;;;7.28;100.00;94948.56;5019081;28;20279;-72
2021/01/29 02:29:40;;;;;;;11.83;6.47;;;;;;;7.36;100.00;94948.44;5014640;28;20225;-72
2021/01/29 02:32:39;;;;;;;8.20;5.27;;;;;;;7.34;100.00;94939.97;5020063;28;20217;-72
2021/01/29 02:35:48;;;;;;;9.97;6.57;;;;;;;7.31;100.00;94932.47;5017004;28;20209;-72
2021/01/29 02:38:44;;;;;;;11.10;6.30;;;;;;;7.29;100.00;94934.47;5019815;28;20645;-73
2021/01/29 02:41:23;;;;;;;9.23;6.07;;;;;;;7.33;100.00;94917.38;5002038;28;20676;-73
2021/01/29 02:44:06;;;;;;;13.23;6.63;;;;;;;7.28;100.00;94921.56;5019769;28;20664;-73
2021/01/29 02:46:47;;;;;;;10.20;6.10;;;;;;;7.30;100.00;94915.13;5018728;28;20262;-72
2021/01/29 02:49:21;;;;;;;10.90;5.83;;;;;;;7.27;100.00;94917.31;5018260;28;20205;-73
2021/01/29 02:51:53;;;;;;;6.73;3.93;;;;;;;7.35;100.00;94914.56;5019592;28;20205;-73
2021/01/29 02:54:26;;;;;;;8.53;5.87;;;;;;;7.30;100.00;94902.03;5019544;28;20229;-73
2021/01/29 02:56:57;;;;;;;9.63;5.80;;;;;;;7.25;100.00;94894.94;5018529;28;20260;-72
2021/01/29 02:59:32;;;;;;;8.27;5.17;;;;;;;7.27;100.00;94881.44;5018811;28;20198;-73
2021/01/29 03:02:02;;;;;;;5.17;2.93;;;;;;;7.36;100.00;94875.06;5019487;28;20263;-73
2021/01/29 03:04:32;;;;;;;7.77;5.27;;;;;;;7.27;100.00;94878.84;5019306;28;20222;-72
2021/01/29 03:07:04;;;;;;;7.57;4.80;;;;;;;7.29;100.00;94868.16;5018225;28;20324;-72
2021/01/29 03:09:36;;;;;;;8.83;4.83;;;;;;;7.26;100.00;94867.75;5018856;28;20214;-73
2021/01/29 03:12:08;;;;;;;8.67;5.37;;;;;;;7.21;100.00;94865.69;5018730;28;20225;-73
2021/01/29 03:14:40;;;;;;;11.50;5.87;;;;;;;7.24;100.00;94870.53;5018708;28;20565;-73
2021/01/29 03:17:13;;;;;;;9.63;5.13;;;;;;;7.17;100.00;94858.41;5018332;28;20230;-73
2021/01/29 03:19:48;;;;;;;7.60;4.63;;;;;;;7.27;100.00;94857.88;5018958;28;20213;-73
2021/01/29 03:22:18;;;;;;;7.37;4.47;;;;;;;7.22;100.00;94856.84;5018755;28;20206;-73
2021/01/29 03:24:50;;;;;;;3.63;2.33;;;;;;;7.35;100.00;94851.69;5018877;28;20236;-72
2021/01/29 03:27:21;;;;;;;5.47;3.57;;;;;;;7.33;100.00;94841.41;5018528;28;20241;-73
2021/01/29 03:29:52;;;;;;;4.33;3.23;;;;;;;7.46;100.00;94838.88;5017408;28;20201;-73
2021/01/29 03:32:20;;;;;;;4.13;2.90;;;;;;;7.45;100.00;94829.38;5018522;28;21109;-72
2021/01/29 03:34:51;;;;;;;3.93;2.73;;;;;;;7.59;100.00;94828.47;5019162;28;20205;-72
2021/01/29 03:37:27;;;;;;;4.27;2.50;;;;;;;7.60;100.00;94819.59;5017818;28;20225;-72
2021/01/29 03:39:55;;;;;;;2.70;1.63;;;;;;;7.67;100.00;94822.25;5018329;28;20287;-72
2021/01/29 03:42:38;;;;;;;3.20;1.80;;;;;;;7.71;100.00;94815.63;5018561;28;20205;-72
2021/01/29 03:45:15;;;;;;;3.23;2.17;;;;;;;7.68;100.00;94819.44;5017788;28;20217;-72
2021/01/29 03:47:53;;;;;;;3.50;2.40;;;;;;;7.64;100.00;94823.44;5018149;28;20729;-72
2021/01/29 03:50:28;;;;;;;2.77;1.77;;;;;;;7.64;100.00;94823.44;5018330;28;20268;-72
2021/01/29 03:53:06;;;;;;;2.60;1.53;;;;;;;7.67;100.00;94817.03;5018008;28;20209;-72
2021/01/29 03:55:43;;;;;;;3.13;2.10;;;;;;;7.64;100.00;94809.56;5017714;28;20205;-72
2021/01/29 03:58:15;;;;;;;3.00;2.10;;;;;;;7.56;100.00;94802.66;5017590;28;20213;-72
2021/01/29 04:00:50;;;;;;;2.43;1.97;;;;;;;7.60;100.00;94801.25;5017944;28;20209;-73
2021/01/29 04:03:29;;;;;;;2.53;1.77;;;;;;;7.57;100.00;94792.97;5017945;28;20201;-72
2021/01/29 04:06:03;;;;;;;3.03;1.90;;;;;;;7.57;100.00;94799.00;5017485;28;20225;-72
2021/01/29 04:08:35;;;;;;;3.03;2.00;;;;;;;7.55;100.00;94784.50;5017754;28;20225;-71
2021/01/29 04:11:04;;;;;;;4.77;1.83;;;;;;;7.58;100.00;94789.34;5017704;28;20208;-72
2021/01/29 04:13:37;;;;;;;3.33;2.27;;;;;;;7.54;100.00;94786.28;5017839;28;21300;-72
2021/01/29 04:16:07;;;;;;;3.83;2.30;;;;;;;7.54;100.00;94785.50;5017073;28;20231;-73
2021/01/29 04:18:38;;;;;;;2.33;1.53;;;;;;;7.55;100.00;94793.16;5017709;28;20226;-73
2021/01/29 04:21:08;;;;;;;4.23;1.93;;;;;;;7.52;100.00;94782.25;5017766;28;20198;-72
2021/01/29 04:23:39;;;;;;;3.37;1.77;;;;;;;7.51;100.00;94781.44;5017512;28;20205;-72
2021/01/29 04:26:11;;;;;;;2.53;1.80;;;;;;;7.49;100.00;94780.03;5016338;28;20226;-72
2021/01/29 04:28:44;;;;;;;2.53;1.57;;;;;;;7.51;100.00;94776.22;5017735;28;20244;-72
2021/01/29 04:31:14;;;;;;;4.43;1.80;;;;;;;7.53;100.00;94768.94;5017427;28;20202;-73
2021/01/29 04:33:45;;;;;;;2.83;1.60;;;;;;;7.48;100.00;94760.06;5017516;28;20209;-72
2021/01/29 04:36:15;;;;;;;1.23;0.97;;;;;;;7.52;100.00;94764.72;5017078;28;20193;-72
2021/01/29 04:38:46;;;;;;;2.90;1.23;;;;;;;7.45;100.00;94753.38;5017013;28;21206;-73
2021/01/29 04:41:23;;;;;;;3.43;1.37;;;;;;;7.45;100.00;94753.38;5016876;28;20206;-73
2021/01/29 04:44:04;;;;;;;2.07;1.30;;;;;;;7.49;100.00;94746.75;5017643;28;20581;-73
2021/01/29 04:46:42;;;;;;;0.87;0.80;;;;;;;7.55;100.00;94748.59;5016990;28;20225;-72
2021/01/29 04:49:20;;;;;;;1.73;1.00;;;;;;;7.53;100.00;94744.56;5016576;28;20213;-73
2021/01/29 04:52:17;;;;;;;1.70;0.87;;;;;;;7.52;100.00;94743.75;5017020;28;20673;-73
2021/01/29 04:54:56;;;;;;;1.90;1.50;;;;;;;7.52;100.00;94741.16;5017082;28;20206;-72
2021/01/29 04:57:48;;;;;;;6.27;2.37;;;;;;;7.53;100.00;94724.38;5016507;28;20574;-72
2021/01/29 05:00:42;;;;;;;1.50;1.10;;;;;;;7.42;100.00;94717.09;5016922;28;20714;-72
2021/01/29 05:03:38;;;;;;;2.90;1.30;;;;;;;7.45;100.00;94708.84;5016936;28;20206;-73
2021/01/29 05:06:21;;;;;;;4.97;1.70;;;;;;;7.40;100.00;94703.38;5015873;28;20701;-72
2021/01/29 05:09:08;;;;;;;2.57;1.00;;;;;;;7.42;100.00;94688.28;5016724;28;20233;-73
2021/01/29 05:11:54;;;;;;;2.43;1.30;;;;;;;7.39;100.00;94680.78;5016475;28;20632;-72
2021/01/29 05:14:40;;;;;;;4.17;1.70;;;;;;;7.39;100.00;94674.75;5017079;28;20198;-72
2021/01/29 05:17:24;;;;;;;2.63;1.40;;;;;;;7.36;100.00;94675.16;5015629;28;20241;-72
2021/01/29 05:20:10;;;;;;;5.87;2.17;;;;;;;7.38;100.00;94673.13;5016571;28;20209;-72
2021/01/29 05:22:52;;;;;;;0.80;0.70;;;;;;;7.41;100.00;94665.69;5016929;28;20213;-72
2021/01/29 05:26:00;;;;;;;3.23;1.07;;;;;;;7.34;100.00;94662.25;5015850;28;20951;-72
2021/01/29 05:28:56;;;;;;;1.10;0.70;;;;;;;7.34;100.00;94653.56;5016183;28;20237;-72
2021/01/29 05:32:02;;;;;;;3.10;1.50;;;;;;;7.28;100.00;94651.75;5016552;28;20217;-72
2021/01/29 05:34:48;;;;;;;1.10;0.70;;;;;;;7.32;100.00;94648.53;5016626;28;20206;-72
2021/01/29 05:37:43;;;;;;;2.40;0.83;;;;;;;7.29;100.00;94648.94;5015679;28;20225;-72
2021/01/29 05:40:26;;;;;;;1.30;1.00;;;;;;;7.27;100.00;94645.69;5016727;28;20232;-72
2021/01/29 05:43:07;;;;;;;0.97;0.80;;;;;;;7.24;100.00;94631.34;5016461;28;20210;-72
2021/01/29 05:45:52;;;;;;;1.17;0.80;;;;;;;7.23;100.00;94621.88;5015469;28;20225;-73
2021/01/29 05:48:52;;;;;;;3.43;1.43;;;;;;;7.17;100.00;94614.81;5017019;28;20284;-72
2021/01/29 05:51:53;;;;;;;1.27;0.83;;;;;;;7.16;100.00;94613.19;5002256;28;20225;-73
2021/01/29 05:54:36;;;;;;;1.60;0.90;;;;;;;7.09;100.00;94602.69;5016250;28;20292;-73
2021/01/29 05:57:25;;;;;;;4.17;1.50;;;;;;;7.04;100.00;94606.88;5016557;28;20225;-72
2021/01/29 06:00:02;;;;;;;2.63;1.40;;;;;;;7.01;100.00;94591.56;5016322;28;20202;-72
2021/01/29 06:02:54;;;;;;;6.27;2.43;;;;;;;6.91;100.00;94591.13;5016123;28;20206;-72
2021/01/29 06:05:34;;;;;;;4.73;1.73;;;;;;;6.83;100.00;94575.59;5005638;28;21397;-73
2021/01/29 06:08:26;;;;;;;4.17;1.73;;;;;;;6.91;100.00;94578.03;5015826;28;21040;-73
2021/01/29 06:11:11;;;;;;;5.50;2.03;;;;;;;6.84;100.00;94574.59;5016276;28;20244;-72
2021/01/29 06:14:12;;;;;;;8.83;3.60;;;;;;;6.86;100.00;94577.81;5016620;28;20214;-72
2021/01/29 06:17:02;;;;;;;4.03;1.27;;;;;;;6.80;100.00;94562.91;5015104;28;20217;-72
2021/01/29 06:20:11;;;;;;;4.10;1.70;;;;;;;6.83;100.00;94559.88;5016251;28;20202;-72
2021/01/29 06:22:59;;;;;;;6.53;3.10;;;;;;;6.82;100.00;94571.34;5015993;28;20217;-72
2021/01/29 06:25:42;;;;;;;9.57;4.30;;;;;;;6.80;100.00;94563.69;5018622;28;20225;-72
2021/01/29 06:28:37;;;;;;;4.83;3.00;;;;;;;6.80;100.00;94563.69;5019979;28;20218;-72
2021/01/29 06:31:34;;;;;;;3.83;2.07;;;;;;;6.84;100.00;94569.34;5019150;28;20267;-73
2021/01/29 06:34:21;;;;;;;2.00;1.40;;;;;;;6.89;100.00;94585.28;5016069;28;20202;-72
2021/01/29 06:36:56;;;;;;;2.50;1.70;;;;;;;6.88;100.00;94578.44;5019242;28;20220;-72
2021/01/29 06:39:37;;;;;;;4.87;2.33;;;;;;;6.86;100.00;94577.81;5019295;28;20205;-72
2021/01/29 06:42:35;;;;;;;4.63;1.90;;;;;;;6.88;100.00;94570.56;5019526;28;20332;-73
2021/01/29 06:45:19;;;;;;;4.13;2.10;;;;;;;6.92;100.00;94582.28;5019176;28;20225;-73
2021/01/29 06:48:18;;;;;;;2.67;1.43;;;;;;;7.00;100.00;94589.94;5018848;28;20237;-73
2021/01/29 06:51:10;;;;;;;4.10;1.90;;;;;;;7.02;100.00;94586.13;5019531;28;20271;-72
2021/01/29 06:54:18;;;;;;;2.30;1.10;;;;;;;7.03;100.00;94582.53;5019357;28;20221;-72
2021/01/29 06:57:07;;;;;;;4.33;1.60;;;;;;;6.99;100.00;94581.31;4989708;28;20212;-72
2021/01/29 07:00:05;;;;;;;2.13;1.40;;;;;;;7.05;100.00;94571.84;5015646;28;20202;-73
2021/01/29 07:03:04;;;;;;;2.03;1.37;;;;;;;7.09;100.00;94557.34;5018459;28;20202;-72
2021/01/29 07:05:46;;;;;;;3.00;1.40;;;;;;;7.14;100.00;94566.25;5018125;28;20225;-73
2021/01/29 07:08:22;;;;;;;2.00;1.47;;;;;;;7.12;100.00;94564.84;5018659;28;20942;-72
2021/01/29 07:11:22;;;;;;;1.60;1.30;;;;;;;7.17;100.00;94586.00;5018530;28;20210;-73
2021/01/29 07:14:04;;;;;;;2.00;1.20;;;;;;;7.17;100.00;94612.22;5019201;28;20214;-73
2021/01/29 07:16:44;;;;;;;1.37;1.07;;;;;;;7.15;100.00;94599.28;5017910;28;20206;-72
2021/01/29 07:19:23;;;;;;;2.00;1.30;;;;;;;7.14;100.00;94623.06;5018833;28;20221;-72
2021/01/29 07:22:16;;;;;;;3.10;1.13;;;;;;;7.15;100.00;94635.16;5019076;28;20205;-73
2021/01/29 07:24:50;;;;;;;2.50;1.57;;;;;;;7.14;100.00;94634.34;5016883;28;20232;-72
2021/01/29 07:27:29;;;;;;;0.80;0.80;;;;;;;7.23;100.00;94642.84;5017995;28;20319;-72
2021/01/29 07:30:26;;;;;;;1.50;1.30;;;;;;;7.22;100.00;94631.56;5018238;28;20300;-73
2021/01/29 07:33:00;;;;;;;0.90;0.90;;;;;;;7.19;100.00;94625.91;5003204;28;20205;-72
2021/01/29 07:35:33;;;;;;;2.17;0.80;;;;;;;7.26;100.00;94628.34;5018238;28;20206;-72
2021/01/29 07:38:20;;;;;;;1.63;0.83;;;;;;;7.33;100.00;94629.19;5018333;28;20226;-72
2021/01/29 07:41:00;;;;;;;2.77;1.20;;;;;;;7.27;100.00;94623.94;5011369;28;20267;-73
2021/01/29 07:43:41;;;;;;;1.57;0.80;;;;;;;7.27;100.00;94623.94;5018710;28;20209;-73
2021/01/29 07:46:45;;;;;;;1.47;1.20;;;;;;;7.26;100.00;94616.28;5017178;28;20295;-72
2021/01/29 07:49:24;;;;;;;2.97;1.50;;;;;;;7.23;100.00;94612.22;5011714;28;20197;-72
2021/01/29 07:51:54;;;;;;;2.17;1.73;;;;;;;7.26;100.00;94608.41;5018400;28;20241;-72
2021/01/29 07:54:53;;;;;;;1.87;1.23;;;;;;;7.25;100.00;94602.34;5018182;28;20209;-73
2021/01/29 07:57:37;;;;;;;1.17;1.07;;;;;;;7.26;100.00;94605.78;5009375;28;20229;-72
2021/01/29 08:00:22;;;;;;;2.13;1.10;;;;;;;7.28;100.00;94605.38;5018038;28;20208;-72
2021/01/29 08:03:06;;;;;;;1.83;1.03;;;;;;;7.26;100.00;94605.78;5017329;28;20206;-73
2021/01/29 08:05:37;;;;;;;2.70;1.13;;;;;;;7.32;100.00;94609.22;5016971;28;20230;-71
2021/01/29 08:08:09;;;;;;;1.77;1.10;;;;;;;7.35;100.00;94595.72;5017870;28;20237;-72
2021/01/29 08:10:38;;;;;;;1.43;1.13;;;;;;;7.39;100.00;94590.91;5017563;28;20218;-72
2021/01/29 08:13:15;;;;;;;1.53;0.90;;;;;;;7.36;100.00;94594.72;5017858;28;20198;-72
2021/01/29 08:15:55;;;;;;;1.90;0.90;;;;;;;7.38;100.00;94584.03;5017553;28;20205;-71
2021/01/29 08:18:41;;;;;;;4.20;1.13;;;;;;;7.37;100.00;94585.88;5017605;28;20232;-71
2021/01/29 08:21:36;;;;;;;1.40;1.03;;;;;;;7.41;100.00;94597.56;5017696;28;20202;-72
2021/01/29 08:24:17;;;;;;;1.50;1.30;;;;;;;7.43;100.00;94597.38;5018121;28;20197;-72
2021/01/29 08:27:03;;;;;;;2.40;1.10;;;;;;;7.41;100.00;94594.94;5016722;28;20225;-72
2021/01/29 08:29:56;;;;;;;2.70;0.90;;;;;;;7.41;100.00;94602.81;5017926;28;20209;-72
2021/01/29 08:32:50;;;;;;;0.70;0.63;;;;;;;7.43;100.00;94592.94;5016521;28;20217;-72
2021/01/29 08:35:27;;;;;;;1.77;0.70;;;;;;;7.55;100.00;94612.31;5015471;28;20252;-72
2021/01/29 08:38:01;;;;;;;0.90;0.70;;;;;;;7.65;100.00;94611.94;5015441;28;20237;-72
2021/01/29 08:40:31;;;;;;;1.47;1.00;;;;;;;7.63;100.00;94617.38;5016727;28;20214;-72
2021/01/29 08:43:33;;;;;;;5.43;2.23;;;;;;;7.67;100.00;94621.22;5016590;28;20202;-72
2021/01/29 08:46:23;;;;;;;7.90;3.10;;;;;;;7.71;100.00;94632.13;5015077;28;20229;-72
2021/01/29 08:49:07;;;;;;;1.73;0.93;;;;;;;7.73;100.00;94628.28;5017250;28;20229;-72
2021/01/29 08:51:43;;;;;;;1.93;0.70;;;;;;;7.81;100.00;94635.16;5015891;28;20252;-72
2021/01/29 08:54:24;;;;;;;0.80;0.60;;;;;;;7.87;100.00;94629.94;5016488;28;20579;-72
2021/01/29 08:57:02;;;;;;;0.77;0.53;;;;;;;7.89;100.00;94633.16;5015880;28;20205;-72
2021/01/29 08:59:33;;;;;;;3.50;0.60;;;;;;;8.02;100.00;94627.94;5016516;28;20209;-72
2021/01/29 09:02:09;;;;;;;1.00;0.70;;;;;;;8.07;100.00;94638.63;5016533;28;20961;-72
2021/01/29 09:04:41;;;;;;;0.57;0.40;;;;;;;8.09;100.00;94652.34;5016411;28;20220;-71
2021/01/29 09:07:16;;;;;;;1.00;0.63;;;;;;;8.10;100.00;94654.78;5015526;28;20880;-73
2021/01/29 09:09:42;;;;;;;0.80;0.67;;;;;;;8.09;100.00;94654.97;5016296;28;20216;-71
2021/01/29 09:12:16;;;;;;;2.70;1.20;;;;;;;8.11;100.00;94660.84;5016308;28;20205;-71
2021/01/29 09:14:50;;;;;;;2.00;1.00;;;;;;;8.16;100.00;94664.50;5015785;28;20673;-72
2021/01/29 09:17:21;;;;;;;5.43;1.40;;;;;;;8.16;100.00;94659.25;5015486;28;20497;-72
2021/01/29 09:19:56;;;;;;;1.70;0.90;;;;;;;8.19;100.00;94673.81;5016087;28;20209;-72
2021/01/29 09:22:29;;;;;;;2.17;0.70;;;;;;;8.21;100.00;94671.75;5016083;28;20301;-71
2021/01/29 09:25:04;;;;;;;1.07;0.67;;;;;;;8.24;100.00;94666.94;5016012;28;20244;-72
2021/01/29 09:27:51;;;;;;;0.40;0.40;;;;;;;8.30;100.00;94681.06;5016187;28;20649;-72
2021/01/29 09:30:23;;;;;;;1.40;0.50;;;;;;;8.37;100.00;94666.94;5015543;28;20580;-72
2021/01/29 09:32:54;;;;;;;0.50;0.40;;;;;;;8.54;100.00;94665.53;5015912;28;20206;-72
2021/01/29 09:35:30;;;;;;;0.60;0.60;;;;;;;8.67;100.00;94668.97;5014922;28;20811;-72
2021/01/29 09:38:01;;;;;;;1.07;0.80;;;;;;;8.69;100.00;94666.97;5015549;28;20233;-72
2021/01/29 09:40:33;;;;;;;0.53;0.53;;;;;;;8.78;100.00;94670.97;5015914;28;20205;-72
2021/01/29 09:43:13;;;;;;;1.90;0.60;;;;;;;8.82;100.00;94666.94;5015630;28;20238;-72
2021/01/29 09:45:41;;;;;;;0.90;0.60;;;;;;;8.99;100.00;94677.81;5015017;28;20229;-72
2021/01/29 09:48:11;;;;;;;1.97;0.60;;;;;;;9.00;100.00;94667.09;5016261;28;20287;-72
2021/01/29 09:50:38;;;;;;;1.53;0.90;;;;;;;8.91;100.00;94680.66;5016076;28;20754;-72
2021/01/29 09:53:22;;;;;;;1.03;0.63;;;;;;;8.88;100.00;94676.59;5015111;28;20209;-72
2021/01/29 09:55:56;;;;;;;0.50;0.50;;;;;;;8.91;100.00;94683.28;5015123;28;20220;-71
2021/01/29 09:58:30;;;;;;;2.10;0.57;;;;;;;8.95;100.00;94689.72;5019200;28;20229;-71
2021/01/29 10:01:02;;;;;;;1.13;0.53;;;;;;;8.99;100.00;94697.00;5018923;28;20206;-71
2021/01/29 10:03:34;;;;;;;0.57;0.57;;;;;;;9.01;100.00;94688.91;5019576;28;20311;-72
2021/01/29 10:06:04;;;;;;;0.70;0.60;;;;;;;9.03;100.00;94698.22;5019606;28;20226;-72
2021/01/29 10:08:36;;;;;;;2.53;0.80;;;;;;;9.15;100.00;94704.44;5019272;28;20724;-72
2021/01/29 10:11:05;;;;;;;3.87;1.33;;;;;;;9.21;100.00;94708.88;5019343;28;20690;-72
2021/01/29 10:13:40;;;;;;;3.43;1.40;;;;;;;9.29;100.00;94706.03;5019769;28;20206;-72
2021/01/29 10:16:14;;;;;;;0.83;0.70;;;;;;;9.19;100.00;94709.09;5018677;28;20209;-72
2021/01/29 10:18:43;;;;;;;0.70;0.50;;;;;;;9.11;100.00;94732.97;5019392;28;20448;-72
2021/01/29 10:21:15;;;;;;;0.80;0.70;;;;;;;8.99;100.00;94744.28;5019475;28;20202;-72
2021/01/29 10:23:48;;;;;;;1.77;1.00;;;;;;;8.83;100.00;94723.69;5019160;28;20276;-72
2021/01/29 10:26:22;;;;;;;1.83;0.90;;;;;;;8.65;100.00;94731.34;5018533;28;20225;-72
2021/01/29 10:29:09;;;;;;;2.07;1.07;;;;;;;8.54;100.00;94733.78;5019043;28;20390;-72
2021/01/29 10:31:44;;;;;;;1.13;0.70;;;;;;;8.49;100.00;94733.59;5019063;28;20631;-72
2021/01/29 10:34:22;;;;;;;3.70;1.07;;;;;;;8.74;100.00;94731.97;5018621;28;20680;-72
2021/01/29 10:37:01;;;;;;;1.83;1.10;;;;;;;8.83;100.00;94730.75;5018660;28;20714;-73
2021/01/29 10:39:49;;;;;;;1.77;0.97;;;;;;;8.78;100.00;94725.31;5019332;28;20695;-72
2021/01/29 10:42:20;;;;;;;3.50;1.70;;;;;;;8.82;100.00;94726.50;5018762;28;20561;-72
2021/01/29 10:44:52;;;;;;;1.93;1.07;;;;;;;8.80;100.00;94729.34;5018861;28;20210;-72
2021/01/29 10:47:26;;;;;;;1.67;1.07;;;;;;;8.75;100.00;94752.78;5018663;28;20230;-72
2021/01/29 10:49:57;;;;;;;3.37;1.00;;;;;;;8.70;100.00;94742.06;5018788;28;20613;-71
2021/01/29 10:52:41;;;;;;;2.87;1.90;;;;;;;8.95;100.00;94740.47;5018759;28;20634;-72
2021/01/29 10:55:20;;;;;;;1.50;0.90;;;;;;;9.17;100.00;94741.84;5018240;28;20837;-72
2021/01/29 10:58:01;;;;;;;2.57;1.13;;;;;;;9.42;100.00;94742.81;5018470;28;20257;-73
2021/01/29 11:00:31;;;;;;;1.73;1.17;;;;;;;9.60;100.00;94737.69;5018810;28;20213;-71
2021/01/29 11:03:06;;;;;;;1.30;0.90;;;;;;;9.61;100.00;94740.16;5018020;28;20240;-72
2021/01/29 11:05:37;;;;;;;1.83;0.80;;;;;;;9.67;100.00;94754.28;5018184;28;20252;-72
2021/01/29 11:08:13;;;;;;;1.73;0.90;;;;;;;9.68;100.00;94754.84;5018340;28;20226;-72
2021/01/29 11:10:42;;;;;;;1.30;1.20;;;;;;;9.65;100.00;94753.66;5017674;28;20205;-72
2021/01/29 11:13:13;;;;;;;2.70;1.53;;;;;;;9.51;100.00;94762.59;5018717;28;20198;-71
2021/01/29 11:15:45;;;;;;;3.30;1.03;;;;;;;9.38;100.00;94768.72;5018543;28;20210;-72
2021/01/29 11:18:18;;;;;;;3.37;1.10;;;;;;;9.32;100.00;94758.22;5017863;28;20322;-72
2021/01/29 11:20:44;;;;;;;1.17;0.80;;;;;;;9.46;100.00;94776.38;5018162;28;20585;-71
2021/01/29 11:23:23;;;;;;;2.27;1.20;;;;;;;9.79;100.00;94774.47;5018892;28;20700;-72
2021/01/29 11:25:57;;;;;;;1.60;1.10;;;;;;;9.93;100.00;94771.59;5017579;28;20720;-73
2021/01/29 11:28:49;;;;;;;1.40;0.77;;;;;;;9.90;100.00;94769.38;5017918;28;20225;-72
2021/01/29 11:31:18;;;;;;;5.70;1.20;;;;;;;9.83;100.00;94765.94;5018043;28;20621;-72
2021/01/29 11:33:49;;;;;;;1.13;1.00;;;;;;;9.83;100.00;94765.94;5017889;28;20683;-72
2021/01/29 11:36:30;;;;;;;2.07;0.87;;;;;;;9.81;100.00;94764.53;5017250;28;20240;-72
2021/01/29 11:39:17;;;;;;;1.00;0.70;;;;;;;9.90;100.00;94774.63;5017728;28;20225;-72
2021/01/29 11:41:56;;;;;;;1.90;0.70;;;;;;;10.08;100.00;94759.00;5017847;28;20202;-72
2021/01/29 11:44:34;;;;;;;1.67;0.53;;;;;;;10.10;100.00;94764.84;5018180;28;20210;-73
2021/01/29 11:47:05;;;;;;;2.50;0.83;;;;;;;10.07;99.27;94757.41;5017385;28;20249;-73
2021/01/29 11:49:37;;;;;;;1.47;0.50;;;;;;;9.95;99.56;94747.69;5017521;28;20453;-72
2021/01/29 11:52:14;;;;;;;2.53;0.90;;;;;;;9.94;98.64;94759.22;5017262;28;20233;-72
2021/01/29 11:54:49;;;;;;;1.17;0.57;;;;;;;10.09;99.22;94751.91;5017794;28;20815;-72
2021/01/29 11:57:24;;;;;;;0.80;0.70;;;;;;;10.15;97.72;94751.88;5016924;28;20217;-72
2021/01/29 11:59:55;;;;;;;1.33;1.00;;;;;;;10.04;95.74;94749.94;5017374;28;20231;-72
2021/01/29 12:02:31;;;;;;;3.13;1.13;;;;;;;10.14;97.13;94765.25;5017251;28;20202;-72
2021/01/29 12:05:08;;;;;;;0.83;0.70;;;;;;;10.12;93.40;94760.22;5017092;28;20205;-72
2021/01/29 12:07:42;;;;;;;2.50;1.00;;;;;;;10.15;94.49;94749.25;5017129;28;20230;-73
2021/01/29 12:10:16;;;;;;;3.03;1.60;;;;;;;10.11;94.20;94757.78;5017267;28;20213;-73
2021/01/29 12:12:51;;;;;;;1.37;1.03;;;;;;;9.98;94.41;94745.50;5017265;28;20668;-73
2021/01/29 12:15:25;;;;;;;2.83;1.30;;;;;;;9.84;95.49;94746.53;5016908;28;20216;-72
2021/01/29 12:17:56;;;;;;;2.93;1.07;;;;;;;9.68;94.21;94744.34;5017235;28;20225;-72
2021/01/29 12:20:26;;;;;;;1.17;0.70;;;;;;;9.64;95.43;94746.81;5017399;28;20492;-73